createdAt,value
2022-09-06T00:00:30.156Z,101489.34
2022-09-06T00:02:59.117Z,101489.03
2022-09-06T00:05:27.239Z,101482.19
2022-09-06T00:07:55.362Z,101485.63
2022-09-06T00:10:24.721Z,101481.97
2022-09-06T00:12:52.858Z,101480.94
2022-09-06T00:15:22.375Z,101482.63
2022-09-06T00:17:51.671Z,101485.63
2022-09-06T00:20:19.674Z,101486.53
2022-09-06T00:22:47.649Z,101482.31
2022-09-06T00:25:15.749Z,101485.31
2022-09-06T00:27:45.107Z,101480.34
2022-09-06T00:30:13.965Z,101482.13
2022-09-06T00:32:41.963Z,101481.59
2022-09-06T00:35:09.976Z,101477.22
2022-09-06T00:37:38.923Z,101471.28
2022-09-06T00:40:08.870Z,101466.25
2022-09-06T00:42:37.242Z,101465.69
2022-09-06T00:45:09.262Z,101453.84
2022-09-06T00:47:39.881Z,101451.47
2022-09-06T00:50:08.983Z,101448.44
2022-09-06T00:52:39.488Z,101446.75
2022-09-06T00:55:08.281Z,101439.50
2022-09-06T00:57:36.483Z,101449.75
2022-09-06T01:00:08.901Z,101456.75
2022-09-06T01:02:39.271Z,101459.19
2022-09-06T01:05:08.236Z,101473.41
2022-09-06T01:07:51.731Z,101485.88
2022-09-06T01:10:43.862Z,101499.09
2022-09-06T01:13:26.667Z,101509.94
2022-09-06T01:16:04.176Z,101520.03
2022-09-06T01:18:44.341Z,101522.84
2022-09-06T01:21:22.177Z,101522.59
2022-09-06T01:24:17.782Z,101523.53
2022-09-06T01:27:15.486Z,101521.00
2022-09-06T01:29:49.892Z,101529.88
2022-09-06T01:32:27.840Z,101521.59
2022-09-06T01:35:04.065Z,101521.03
2022-09-06T01:37:32.165Z,101527.72
2022-09-06T01:40:00.209Z,101528.69
2022-09-06T01:42:31.985Z,101545.00
2022-09-06T01:45:04.576Z,101540.50
2022-09-06T01:47:42.846Z,101539.66
2022-09-06T01:50:35.995Z,101529.41
2022-09-06T01:53:16.115Z,101521.81
2022-09-06T01:55:52.050Z,101516.63
2022-09-06T01:58:37.170Z,101520.88
2022-09-06T02:01:14.070Z,101520.03
2022-09-06T02:03:51.221Z,101513.56
2022-09-06T02:06:23.732Z,101504.00
2022-09-06T02:08:56.830Z,101505.59
2022-09-06T02:11:28.134Z,101492.44
2022-09-06T02:14:00.010Z,101496.94
2022-09-06T02:16:33.471Z,101489.63
2022-09-06T02:19:07.595Z,101475.00
2022-09-06T02:21:42.849Z,101467.13
2022-09-06T02:24:16.358Z,101457.00
2022-09-06T02:26:45.615Z,101447.34
2022-09-06T02:29:14.138Z,101452.16
2022-09-06T02:31:46.780Z,101441.53
2022-09-06T02:34:18.232Z,101426.50
2022-09-06T02:36:47.226Z,101428.31
2022-09-06T02:39:15.761Z,101427.66
2022-09-06T02:41:46.563Z,101418.00
2022-09-06T02:44:15.041Z,101409.00
2022-09-06T02:46:44.336Z,101388.66
2022-09-06T02:49:12.326Z,101364.94
2022-09-06T02:51:41.070Z,101343.91
2022-09-06T02:54:09.275Z,101320.50
2022-09-06T02:56:37.731Z,101307.06
2022-09-06T02:59:05.868Z,101278.84
2022-09-06T03:01:34.435Z,101268.66
2022-09-06T03:04:06.453Z,101259.69
2022-09-06T03:06:35.813Z,101251.78
2022-09-06T03:09:03.931Z,101254.19
2022-09-06T03:11:32.107Z,101255.31
2022-09-06T03:14:00.100Z,101259.38
2022-09-06T03:16:28.263Z,101254.66
2022-09-06T03:18:56.339Z,101266.69
2022-09-06T03:21:25.785Z,101275.38
2022-09-06T03:23:54.735Z,101298.66
2022-09-06T03:26:22.790Z,101331.63
2022-09-06T03:28:51.576Z,101335.69
2022-09-06T03:31:19.692Z,101333.44
2022-09-06T03:33:47.868Z,101336.94
2022-09-06T03:36:15.965Z,101334.25
2022-09-06T03:38:45.402Z,101326.28
2022-09-06T03:41:14.749Z,101320.94
2022-09-06T03:43:44.084Z,101335.78
2022-09-06T03:46:12.160Z,101342.25
2022-09-06T03:48:40.221Z,101347.56
2022-09-06T03:51:08.220Z,101342.66
2022-09-06T03:53:36.210Z,101337.03
2022-09-06T03:56:05.928Z,101350.06
2022-09-06T03:58:34.584Z,101371.69
2022-09-06T04:01:08.051Z,101368.78
2022-09-06T04:03:36.746Z,101369.19
2022-09-06T04:06:06.260Z,101370.13
2022-09-06T04:08:35.331Z,101375.75
2022-09-06T04:11:03.349Z,101379.56
2022-09-06T04:13:34.261Z,101373.66
2022-09-06T04:16:02.849Z,101377.31
2022-09-06T04:18:30.811Z,101368.47
2022-09-06T04:20:59.419Z,101372.69
2022-09-06T04:23:29.095Z,101368.34
2022-09-06T04:25:59.361Z,101373.66
2022-09-06T04:28:28.337Z,101381.22
2022-09-06T04:31:04.075Z,101377.31
2022-09-06T04:33:34.268Z,101376.75
2022-09-06T04:36:04.007Z,101372.28
2022-09-06T04:38:38.376Z,101368.47
2022-09-06T04:41:07.328Z,101374.53
2022-09-06T04:43:35.288Z,101372.13
2022-09-06T04:46:13.013Z,101378.75
2022-09-06T04:48:41.249Z,101383.34
2022-09-06T04:51:09.197Z,101380.41
2022-09-06T04:53:37.374Z,101373.25
2022-09-06T04:56:05.977Z,101377.34
2022-09-06T04:58:34.059Z,101383.63
2022-09-06T05:01:02.095Z,101374.22
2022-09-06T05:03:31.563Z,101384.91
2022-09-06T05:06:10.372Z,101384.19
2022-09-06T05:08:39.578Z,101384.47
2022-09-06T05:11:08.724Z,101388.81
2022-09-06T05:13:37.067Z,101397.13
2022-09-06T05:16:07.013Z,101392.19
2022-09-06T05:18:37.065Z,101391.06
2022-09-06T05:21:05.587Z,101392.03
2022-09-06T05:23:33.508Z,101402.88
2022-09-06T05:26:01.490Z,101400.88
2022-09-06T05:28:29.972Z,101399.50
2022-09-06T05:31:07.315Z,101395.16
2022-09-06T05:33:36.862Z,101403.16
2022-09-06T05:36:05.365Z,101410.69
2022-09-06T05:38:33.981Z,101417.72
2022-09-06T05:41:02.197Z,101429.81
2022-09-06T05:43:30.275Z,101431.78
2022-09-06T05:45:58.407Z,101436.69
2022-09-06T05:48:26.524Z,101442.44
2022-09-06T05:51:02.845Z,101450.56
2022-09-06T05:53:35.843Z,101452.78
2022-09-06T05:56:05.071Z,101456.44
2022-09-06T05:58:33.249Z,101450.41
2022-09-06T06:01:09.038Z,101456.47
2022-09-06T06:03:37.193Z,101454.19
2022-09-06T06:06:07.146Z,101461.78
2022-09-06T06:08:36.159Z,101458.41
2022-09-06T06:11:04.184Z,101470.75
2022-09-06T06:13:34.994Z,101472.16
2022-09-06T06:16:04.383Z,101468.50
2022-09-06T06:18:32.466Z,101465.13
2022-09-06T06:21:13.652Z,101464.28
2022-09-06T06:23:42.912Z,101464.84
2022-09-06T06:26:11.946Z,101474.38
2022-09-06T06:28:41.054Z,101471.59
2022-09-06T06:31:10.995Z,101471.28
2022-09-06T06:33:39.576Z,101469.16
2022-09-06T06:36:20.689Z,101473.22
2022-09-06T06:38:51.248Z,101467.59
2022-09-06T06:41:21.368Z,101467.00
2022-09-06T06:43:49.443Z,101471.06
2022-09-06T06:46:19.747Z,101467.84
2022-09-06T06:48:51.553Z,101466.13
2022-09-06T06:51:24.165Z,101451.75
2022-09-06T06:53:54.135Z,101452.88
2022-09-06T06:56:23.929Z,101449.47
2022-09-06T06:58:55.088Z,101448.03
2022-09-06T07:01:23.731Z,101446.63
2022-09-06T07:03:52.226Z,101445.84
2022-09-06T07:06:21.314Z,101443.00
2022-09-06T07:08:49.680Z,101436.44
2022-09-06T07:11:22.924Z,101433.84
2022-09-06T07:13:53.503Z,101432.44
2022-09-06T07:16:23.457Z,101424.66
2022-09-06T07:18:52.670Z,101415.72
2022-09-06T07:21:41.701Z,101413.34
2022-09-06T07:24:10.439Z,101414.44
2022-09-06T07:29:31.302Z,101416.47
2022-09-06T07:32:15.725Z,101416.97
2022-09-06T07:34:44.276Z,101408.81
2022-09-06T07:37:12.287Z,101417.69
2022-09-06T07:39:41.383Z,101417.38
2022-09-06T07:42:10.935Z,101428.94
2022-09-06T07:44:39.508Z,101421.34
2022-09-06T07:55:33.475Z,101427.03
2022-09-06T07:58:03.170Z,101422.03
2022-09-06T08:00:31.760Z,101420.34
2022-09-06T08:03:00.096Z,101418.34
2022-09-06T08:11:06.486Z,101420.00
2022-09-06T08:13:36.363Z,101411.91
2022-09-06T08:16:06.739Z,101403.09
2022-09-06T08:18:35.398Z,101401.41
2022-09-06T08:21:12.619Z,101403.69
2022-09-06T08:23:43.280Z,101403.59
2022-09-06T08:26:12.037Z,101401.69
2022-09-06T08:28:41.463Z,101407.75
2022-09-06T08:31:11.148Z,101414.41
2022-09-06T08:33:40.603Z,101406.41
2022-09-06T08:36:09.825Z,101405.72
2022-09-06T08:38:38.539Z,101400.06
2022-09-06T08:41:09.368Z,101400.03
2022-09-06T08:43:38.812Z,101397.34
2022-09-06T08:46:10.576Z,101398.66
2022-09-06T08:48:40.072Z,101397.78
2022-09-06T08:51:39.260Z,101399.47
2022-09-06T08:54:13.378Z,101404.28
2022-09-06T08:56:57.810Z,101394.63
2022-09-06T08:59:25.900Z,101396.28
2022-09-06T09:02:04.391Z,101402.59
2022-09-06T09:04:34.521Z,101396.50
2022-09-06T09:07:18.577Z,101397.91
2022-09-06T09:09:47.745Z,101387.00
2022-09-06T09:12:21.357Z,101382.22
2022-09-06T09:14:52.755Z,101381.97
2022-09-06T09:17:26.533Z,101368.59
2022-09-06T09:19:55.160Z,101374.25
2022-09-06T09:22:25.564Z,101375.81
2022-09-06T09:24:54.887Z,101365.81
2022-09-06T09:27:26.535Z,101364.78
2022-09-06T09:32:51.034Z,101354.38
2022-09-06T09:35:27.751Z,101357.75
2022-09-06T09:38:11.838Z,101358.00
2022-09-06T09:40:42.214Z,101352.03
2022-09-06T09:43:14.584Z,101342.69
2022-09-06T09:45:44.119Z,101346.66
2022-09-06T09:48:27.259Z,101341.69
2022-09-06T09:50:56.548Z,101342.09
2022-09-06T09:53:26.183Z,101348.97
2022-09-06T09:55:58.766Z,101344.38
2022-09-06T09:58:31.897Z,101354.19
2022-09-06T10:01:12.819Z,101354.16
2022-09-06T10:09:22.861Z,101340.19
2022-09-06T10:11:56.055Z,101337.00
2022-09-06T10:14:30.666Z,101340.66
2022-09-06T10:16:59.888Z,101337.84
2022-09-06T10:19:39.747Z,101326.91
2022-09-06T10:22:20.173Z,101340.63
2022-09-06T10:25:05.349Z,101334.50
2022-09-06T10:27:34.126Z,101331.97
2022-09-06T10:30:05.671Z,101345.44
2022-09-06T10:32:42.966Z,101340.88
2022-09-06T10:35:21.257Z,101342.38
2022-09-06T10:37:55.682Z,101337.94
2022-09-06T10:40:31.738Z,101326.91
2022-09-06T10:43:02.412Z,101326.63
2022-09-06T10:45:44.390Z,101326.84
2022-09-06T10:48:18.157Z,101328.19
2022-09-06T10:50:53.091Z,101319.50
2022-09-06T10:53:42.387Z,101319.91
2022-09-06T10:56:16.807Z,101323.75
2022-09-06T11:01:48.200Z,101315.69
2022-09-06T11:04:24.660Z,101319.50
2022-09-06T11:06:58.704Z,101320.88
2022-09-06T11:09:33.784Z,101325.16
2022-09-06T11:12:08.968Z,101326.31
2022-09-06T11:14:39.305Z,101330.16
2022-09-06T11:17:12.165Z,101329.38
2022-09-06T11:19:47.937Z,101327.13
2022-09-06T11:22:45.640Z,101329.50
2022-09-06T11:25:45.190Z,101330.66
2022-09-06T11:28:18.356Z,101334.69
2022-09-06T11:30:48.855Z,101336.63
2022-09-06T11:33:25.675Z,101337.63
2022-09-06T11:35:55.281Z,101344.13
2022-09-06T11:38:27.614Z,101347.16
2022-09-06T11:41:00.743Z,101343.13
2022-09-06T11:43:47.957Z,101349.41
2022-09-06T11:46:53.357Z,101341.56
2022-09-06T11:49:41.844Z,101347.84
2022-09-06T11:52:57.094Z,101358.34
2022-09-06T11:55:33.396Z,101346.41
2022-09-06T11:58:04.924Z,101344.69
2022-09-06T12:00:34.651Z,101351.03
2022-09-06T12:06:16.249Z,101347.56
2022-09-06T12:08:44.767Z,101348.91
2022-09-06T12:11:37.890Z,101347.38
2022-09-06T12:14:07.636Z,101336.31
2022-09-06T12:17:30.369Z,101339.13
2022-09-06T12:20:07.272Z,101336.09
2022-09-06T12:23:03.727Z,101333.53
2022-09-06T12:25:56.385Z,101339.03
2022-09-06T12:28:32.951Z,101338.13
2022-09-06T12:31:01.307Z,101337.88
2022-09-06T12:33:32.816Z,101331.13
2022-09-06T12:36:19.285Z,101332.97
2022-09-06T12:38:58.750Z,101327.97
2022-09-06T12:41:29.868Z,101318.91
2022-09-06T12:44:00.797Z,101314.72
2022-09-06T12:46:31.268Z,101302.66
2022-09-06T12:49:10.829Z,101303.47
2022-09-06T12:51:41.150Z,101303.56
2022-09-06T12:54:21.873Z,101294.78
2022-09-06T12:56:50.980Z,101292.09
2022-09-06T12:59:24.617Z,101300.00
2022-09-06T13:02:00.513Z,101290.66
2022-09-06T13:04:35.024Z,101301.56
2022-09-06T13:07:04.999Z,101299.91
2022-09-06T13:09:34.390Z,101303.84
2022-09-06T13:12:07.836Z,101286.34
2022-09-06T13:14:37.840Z,101292.22
2022-09-06T13:17:06.353Z,101295.22
2022-09-06T13:19:36.811Z,101290.38
2022-09-06T13:22:07.724Z,101291.06
2022-09-06T13:24:49.141Z,101295.75
2022-09-06T13:27:28.425Z,101289.41
2022-09-06T13:29:59.967Z,101286.06
2022-09-06T13:32:28.940Z,101290.03
2022-09-06T13:35:00.032Z,101285.19
2022-09-06T13:37:33.786Z,101294.47
2022-09-06T13:40:06.240Z,101288.50
2022-09-06T13:42:37.056Z,101288.03
2022-09-06T13:45:24.876Z,101285.16
2022-09-06T13:48:03.435Z,101280.13
2022-09-06T13:50:43.454Z,101281.75
2022-09-06T13:53:11.549Z,101272.47
2022-09-06T13:55:40.158Z,101276.03
2022-09-06T13:58:09.197Z,101271.25
2022-09-06T14:00:39.402Z,101262.72
2022-09-06T14:03:07.472Z,101253.09
2022-09-06T14:05:38.987Z,101258.22
2022-09-06T14:08:07.145Z,101251.78
2022-09-06T14:10:35.229Z,101251.09
2022-09-06T14:13:03.252Z,101248.41
2022-09-06T14:15:31.417Z,101245.00
2022-09-06T14:18:00.817Z,101251.50
2022-09-06T14:20:28.884Z,101248.00
2022-09-06T14:22:56.988Z,101250.88
2022-09-06T14:25:25.048Z,101242.03
2022-09-06T14:27:53.080Z,101237.97
2022-09-06T14:30:21.113Z,101239.34
2022-09-06T14:32:49.194Z,101236.06
2022-09-06T14:35:18.597Z,101225.63
2022-09-06T14:37:46.731Z,101224.84
2022-09-06T14:40:15.685Z,101218.31
2022-09-06T14:42:46.570Z,101221.41
2022-09-06T14:45:17.065Z,101229.50
2022-09-06T14:47:45.120Z,101230.13
2022-09-06T14:50:13.202Z,101232.19
2022-09-06T14:52:42.613Z,101225.25
2022-09-06T14:55:10.961Z,101228.72
2022-09-06T14:57:39.188Z,101229.72
2022-09-06T15:00:10.340Z,101229.91
2022-09-06T15:02:39.319Z,101236.25
2022-09-06T15:05:09.875Z,101232.41
2022-09-06T15:07:38.888Z,101237.84
2022-09-06T15:10:08.982Z,101231.38
2022-09-06T15:12:38.181Z,101226.47
2022-09-06T15:15:07.156Z,101229.25
2022-09-06T15:17:35.490Z,101223.56
2022-09-06T15:20:04.228Z,101235.09
2022-09-06T15:22:32.257Z,101227.03
2022-09-06T15:25:00.284Z,101223.97
2022-09-06T15:27:30.130Z,101220.66
2022-09-06T15:29:58.293Z,101222.44
2022-09-06T15:32:26.303Z,101217.09
2022-09-06T15:34:54.935Z,101222.56
2022-09-06T15:37:34.829Z,101227.09
2022-09-06T15:40:03.358Z,101227.78
2022-09-06T15:42:32.818Z,101223.84
2022-09-06T15:45:00.933Z,101215.84
2022-09-06T15:47:29.163Z,101212.78
2022-09-06T15:49:57.480Z,101205.22
2022-09-06T15:52:25.516Z,101200.09
2022-09-06T15:55:10.826Z,101197.00
2022-09-06T15:57:40.271Z,101193.44
2022-09-06T16:00:09.601Z,101185.47
2022-09-06T16:02:37.745Z,101190.34
2022-09-06T16:05:06.776Z,101183.94
2022-09-06T16:07:34.782Z,101181.16
2022-09-06T16:10:02.829Z,101177.38
2022-09-06T16:12:30.825Z,101174.34
2022-09-06T16:15:00.310Z,101175.69
2022-09-06T16:17:31.259Z,101173.16
2022-09-06T16:20:01.729Z,101171.53
2022-09-06T16:22:30.813Z,101168.31
2022-09-06T16:24:58.797Z,101165.69
2022-09-06T16:27:26.986Z,101166.16
2022-09-06T16:29:55.229Z,101171.81
2022-09-06T16:32:24.697Z,101166.84
2022-09-06T16:34:52.797Z,101168.34
2022-09-06T16:37:20.826Z,101167.97
2022-09-06T16:39:48.933Z,101169.66
2022-09-06T16:42:17.021Z,101175.13
2022-09-06T16:44:45.012Z,101171.41
2022-09-06T16:47:16.442Z,101175.34
2022-09-06T16:49:46.258Z,101180.19
2022-09-06T16:52:14.506Z,101183.94
2022-09-06T16:54:42.528Z,101178.75
2022-09-06T16:57:10.613Z,101183.72
2022-09-06T16:59:38.633Z,101179.19
2022-09-06T17:02:07.367Z,101181.91
2022-09-06T17:04:35.831Z,101179.00
2022-09-06T17:07:05.217Z,101180.66
2022-09-06T17:09:34.490Z,101188.78
2022-09-06T17:12:02.760Z,101182.13
2022-09-06T17:14:30.715Z,101175.69
2022-09-06T17:17:07.479Z,101181.69
2022-09-06T17:19:37.647Z,101188.53
2022-09-06T17:22:07.063Z,101190.19
2022-09-06T17:24:35.722Z,101195.16
2022-09-06T17:27:04.098Z,101196.59
2022-09-06T17:29:32.872Z,101193.91
2022-09-06T17:32:00.853Z,101200.94
2022-09-06T17:34:28.940Z,101199.63
2022-09-06T17:36:57.414Z,101191.91
2022-09-06T17:39:26.904Z,101186.69
2022-09-06T17:41:55.332Z,101190.22
2022-09-06T17:44:26.464Z,101185.63
2022-09-06T17:47:12.436Z,101184.53
2022-09-06T17:49:41.404Z,101189.75
2022-09-06T17:52:09.649Z,101185.53
2022-09-06T17:54:39.160Z,101185.28
2022-09-06T17:57:07.227Z,101189.63
2022-09-06T17:59:36.117Z,101197.41
2022-09-06T18:02:05.242Z,101202.09
2022-09-06T18:04:33.489Z,101193.75
2022-09-06T18:07:02.041Z,101191.25
2022-09-06T18:09:30.226Z,101193.75
2022-09-06T18:11:59.964Z,101188.75
2022-09-06T18:14:28.680Z,101190.09
2022-09-06T18:16:57.158Z,101191.69
2022-09-06T18:19:26.188Z,101191.09
2022-09-06T18:21:57.337Z,101198.31
2022-09-06T18:24:26.327Z,101201.09
2022-09-06T18:26:54.387Z,101194.09
2022-09-06T18:29:23.895Z,101196.16
2022-09-06T18:31:53.666Z,101191.16
2022-09-06T18:34:22.021Z,101185.78
2022-09-06T18:36:50.103Z,101185.47
2022-09-06T18:39:19.125Z,101177.16
2022-09-06T18:42:07.001Z,101179.84
2022-09-06T18:44:38.018Z,101182.22
2022-09-06T18:47:07.804Z,101175.94
2022-09-06T18:49:39.441Z,101180.50
2022-09-06T18:52:10.244Z,101172.91
2022-09-06T18:54:38.315Z,101165.22
2022-09-06T18:57:06.369Z,101169.25
2022-09-06T18:59:34.384Z,101164.53
2022-09-06T19:02:03.903Z,101159.69
2022-09-06T19:04:32.433Z,101156.44
2022-09-06T19:07:02.341Z,101157.84
2022-09-06T19:09:30.436Z,101154.97
2022-09-06T19:11:58.465Z,101156.31
2022-09-06T19:14:26.618Z,101155.09
2022-09-06T19:16:54.894Z,101155.91
2022-09-06T19:19:24.534Z,101152.25
2022-09-06T19:21:52.560Z,101153.47
2022-09-06T19:24:22.811Z,101156.72
2022-09-06T19:26:51.529Z,101154.31
2022-09-06T19:29:20.527Z,101142.53
2022-09-06T19:31:49.434Z,101137.91
2022-09-06T19:34:17.513Z,101136.25
2022-09-06T19:36:50.085Z,101129.66
2022-09-06T19:39:18.951Z,101123.00
2022-09-06T19:41:47.805Z,101116.41
2022-09-06T19:44:18.550Z,101117.41
2022-09-06T19:46:47.443Z,101112.31
2022-09-06T19:49:17.147Z,101107.31
2022-09-06T19:51:48.969Z,101098.78
2022-09-06T19:54:18.050Z,101091.63
2022-09-06T19:56:47.262Z,101090.53
2022-09-06T19:59:17.739Z,101094.44
2022-09-06T20:01:47.274Z,101091.34
2022-09-06T20:04:16.175Z,101078.38
2022-09-06T20:06:44.241Z,101084.41
2022-09-06T20:09:15.951Z,101080.06
2022-09-06T20:11:44.735Z,101069.94
2022-09-06T20:14:13.570Z,101065.13
2022-09-06T20:16:42.978Z,101062.25
2022-09-06T20:19:14.571Z,101062.81
2022-09-06T20:21:43.129Z,101057.63
2022-09-06T20:24:11.426Z,101054.69
2022-09-06T20:29:10.508Z,101064.78
2022-09-06T20:31:39.358Z,101072.19
2022-09-06T20:34:08.384Z,101084.25
2022-09-06T20:36:38.226Z,101077.84
2022-09-06T20:39:06.374Z,101074.69
2022-09-06T20:41:34.999Z,101059.28
2022-09-06T20:46:36.452Z,101065.78
2022-09-06T20:49:07.077Z,101057.13
2022-09-06T20:51:38.589Z,101045.91
2022-09-06T20:54:07.263Z,101044.25
2022-09-06T20:56:39.853Z,101053.50
2022-09-06T20:59:10.070Z,101047.28
2022-09-06T21:01:44.016Z,101037.94
2022-09-06T21:04:14.924Z,101037.88
2022-09-06T21:06:56.566Z,101029.59
2022-09-06T21:09:24.745Z,101037.38
2022-09-06T21:11:54.298Z,101034.31
2022-09-06T21:14:23.920Z,101037.56
2022-09-06T21:16:52.065Z,101030.06
2022-09-06T21:19:20.140Z,101021.03
2022-09-06T21:21:48.968Z,101022.03
2022-09-06T21:24:18.200Z,101022.94
2022-09-06T21:26:46.327Z,101015.44
2022-09-06T21:29:14.503Z,101015.44
2022-09-06T21:31:43.973Z,101020.97
2022-09-06T21:34:17.021Z,101028.22
2022-09-06T21:36:45.976Z,101037.13
2022-09-06T21:39:14.231Z,101025.56
2022-09-06T21:41:43.651Z,101026.09
2022-09-06T21:44:12.233Z,101015.91
2022-09-06T21:46:41.501Z,101001.44
2022-09-06T21:49:12.799Z,100991.28
2022-09-06T21:51:41.551Z,100994.63
2022-09-06T21:54:09.967Z,100991.63
2022-09-06T21:56:42.336Z,101000.66
2022-09-06T21:59:10.978Z,100982.28
2022-09-06T22:01:40.401Z,100962.84
2022-09-06T22:04:11.985Z,100955.66
2022-09-06T22:06:40.683Z,100941.59
2022-09-06T22:09:12.125Z,100931.72
2022-09-06T22:11:42.085Z,100929.06
2022-09-06T22:14:12.336Z,100932.06
2022-09-06T22:16:44.108Z,100928.91
2022-09-06T22:19:14.147Z,100931.75
2022-09-06T22:21:42.203Z,100921.41
2022-09-06T22:24:12.250Z,100921.22
2022-09-06T22:26:41.640Z,100918.19
2022-09-06T22:29:12.163Z,100920.25
2022-09-06T22:31:41.045Z,100911.50
2022-09-06T22:34:09.488Z,100910.31
2022-09-06T22:36:39.197Z,100916.25
2022-09-06T22:39:07.414Z,100926.13
2022-09-06T22:41:42.943Z,100957.75
2022-09-06T22:44:11.131Z,100972.59
2022-09-06T22:46:40.528Z,100946.16
2022-09-06T22:49:08.793Z,100964.94
2022-09-06T22:51:38.214Z,101004.47
2022-09-06T22:54:06.782Z,100981.44
2022-09-06T22:56:35.734Z,101021.91
2022-09-06T22:59:04.125Z,101008.53
2022-09-06T23:01:34.030Z,101010.50
2022-09-06T23:04:02.314Z,101049.88
2022-09-06T23:06:30.294Z,101068.78
2022-09-06T23:09:00.048Z,101068.13
2022-09-06T23:11:28.713Z,101094.97
2022-09-06T23:13:57.656Z,101138.25
2022-09-06T23:16:27.156Z,101141.66
2022-09-06T23:18:59.015Z,101130.16
2022-09-06T23:21:27.599Z,101117.75
2022-09-06T23:23:57.107Z,101190.34
2022-09-06T23:26:29.603Z,101184.03
2022-09-06T23:28:57.658Z,101151.19
2022-09-06T23:31:27.352Z,101126.88
2022-09-06T23:33:57.022Z,101147.72
2022-09-06T23:36:25.361Z,101152.19
2022-09-06T23:38:53.721Z,101145.66
2022-09-06T23:41:21.757Z,101142.03
2022-09-06T23:43:51.361Z,101136.91
2022-09-06T23:46:20.939Z,101124.75
2022-09-06T23:48:49.245Z,101112.19
2022-09-06T23:51:17.240Z,101119.66
2022-09-06T23:53:49.965Z,101111.44
2022-09-06T23:56:17.978Z,101133.59
2022-09-06T23:58:46.049Z,101143.94
